Southpoint, Ohio
Current Conditions -  °F | °C
As of 10:51 PM on Saturday 22 Nov 2014 (Local Time) from KHTS Reporting Station
Clear Clear  
Wind Chill: 50°   Ceiling: Unl
Heat Index: 50°   Visibility: 10mi
Dew Point: 23°   Wind: 5mph
Humidity: 35%   Direction: 180°S
Pressure: 30.13"   Gusts: NA
Location:  38.4563°N, 82.5446°W
Report Text: KHTS 230351Z 18004KT 10SM CLR 10/M05 A3013 RMK AO2 SLP202 T01001050
Loading
Personal Weather Stations






























Interactive Weather Map New forecast layout! Learn more

10-Day Weather Forecast

Advertisements
Track Severe Weather on mobile